sensor_id;sensor_type;location;lat;lon;timestamp;P1;durP1;ratioP1;P2;durP2;ratioP2
32292;SDS011;43233;48.608;8.838;2022-11-14T00:00:47;10.73;;;9.20;;
32292;SDS011;43233;48.608;8.838;2022-11-14T00:03:13;11.63;;;8.97;;
32292;SDS011;43233;48.608;8.838;2022-11-14T00:05:39;11.30;;;8.80;;
32292;SDS011;43233;48.608;8.838;2022-11-14T00:08:10;13.23;;;9.37;;
32292;SDS011;43233;48.608;8.838;2022-11-14T00:10:44;11.37;;;8.67;;
32292;SDS011;43233;48.608;8.838;2022-11-14T00:13:11;11.63;;;8.90;;
32292;SDS011;43233;48.608;8.838;2022-11-14T00:15:36;9.70;;;8.00;;
32292;SDS011;43233;48.608;8.838;2022-11-14T00:18:02;11.60;;;8.23;;
32292;SDS011;43233;48.608;8.838;2022-11-14T00:20:27;12.07;;;8.90;;
32292;SDS011;43233;48.608;8.838;2022-11-14T00:22:53;10.03;;;8.33;;
32292;SDS011;43233;48.608;8.838;2022-11-14T00:25:19;9.40;;;8.47;;
32292;SDS011;43233;48.608;8.838;2022-11-14T00:27:44;13.30;;;9.40;;
32292;SDS011;43233;48.608;8.838;2022-11-14T00:30:10;12.00;;;8.83;;
32292;SDS011;43233;48.608;8.838;2022-11-14T00:32:35;11.83;;;8.53;;
32292;SDS011;43233;48.608;8.838;2022-11-14T00:35:01;10.30;;;8.17;;
32292;SDS011;43233;48.608;8.838;2022-11-14T00:37:27;11.90;;;8.80;;
32292;SDS011;43233;48.608;8.838;2022-11-14T00:39:52;11.17;;;8.17;;
32292;SDS011;43233;48.608;8.838;2022-11-14T00:42:18;10.97;;;8.50;;
32292;SDS011;43233;48.608;8.838;2022-11-14T00:44:43;10.07;;;8.37;;
32292;SDS011;43233;48.608;8.838;2022-11-14T00:47:09;9.67;;;7.10;;
32292;SDS011;43233;48.608;8.838;2022-11-14T00:49:34;10.90;;;8.63;;
32292;SDS011;43233;48.608;8.838;2022-11-14T00:52:00;10.90;;;7.90;;
32292;SDS011;43233;48.608;8.838;2022-11-14T00:54:26;9.63;;;7.70;;
32292;SDS011;43233;48.608;8.838;2022-11-14T00:56:51;8.70;;;6.90;;
32292;SDS011;43233;48.608;8.838;2022-11-14T00:59:17;11.60;;;7.87;;
32292;SDS011;43233;48.608;8.838;2022-11-14T01:01:42;11.47;;;8.40;;
32292;SDS011;43233;48.608;8.838;2022-11-14T01:04:08;11.53;;;8.33;;
32292;SDS011;43233;48.608;8.838;2022-11-14T01:06:33;13.80;;;9.43;;
32292;SDS011;43233;48.608;8.838;2022-11-14T01:08:59;10.47;;;8.30;;
32292;SDS011;43233;48.608;8.838;2022-11-14T01:11:25;10.90;;;8.00;;
32292;SDS011;43233;48.608;8.838;2022-11-14T01:13:50;15.47;;;9.67;;
32292;SDS011;43233;48.608;8.838;2022-11-14T01:16:18;9.47;;;7.37;;
32292;SDS011;43233;48.608;8.838;2022-11-14T01:18:44;10.00;;;7.87;;
32292;SDS011;43233;48.608;8.838;2022-11-14T01:21:11;13.60;;;9.00;;
32292;SDS011;43233;48.608;8.838;2022-11-14T01:23:37;12.40;;;8.77;;
32292;SDS011;43233;48.608;8.838;2022-11-14T01:26:04;13.43;;;8.80;;
32292;SDS011;43233;48.608;8.838;2022-11-14T01:28:34;9.23;;;7.83;;
32292;SDS011;43233;48.608;8.838;2022-11-14T01:31:14;10.93;;;7.60;;
32292;SDS011;43233;48.608;8.838;2022-11-14T01:33:46;9.47;;;7.63;;
32292;SDS011;43233;48.608;8.838;2022-11-14T01:36:13;9.60;;;7.77;;
32292;SDS011;43233;48.608;8.838;2022-11-14T01:38:39;10.13;;;8.43;;
32292;SDS011;43233;48.608;8.838;2022-11-14T01:41:04;8.83;;;7.93;;
32292;SDS011;43233;48.608;8.838;2022-11-14T01:45:59;9.53;;;6.80;;
32292;SDS011;43233;48.608;8.838;2022-11-14T01:51:07;7.57;;;6.77;;
32292;SDS011;43233;48.608;8.838;2022-11-14T01:53:39;8.43;;;7.00;;
32292;SDS011;43233;48.608;8.838;2022-11-14T01:56:05;9.53;;;7.60;;
32292;SDS011;43233;48.608;8.838;2022-11-14T01:58:34;11.80;;;8.40;;
32292;SDS011;43233;48.608;8.838;2022-11-14T02:01:02;10.33;;;8.13;;
32292;SDS011;43233;48.608;8.838;2022-11-14T02:03:28;12.80;;;8.00;;
32292;SDS011;43233;48.608;8.838;2022-11-14T02:05:54;9.77;;;8.10;;
32292;SDS011;43233;48.608;8.838;2022-11-14T02:08:20;27.50;;;10.10;;
32292;SDS011;43233;48.608;8.838;2022-11-14T02:10:47;9.20;;;7.67;;
32292;SDS011;43233;48.608;8.838;2022-11-14T02:13:12;29.10;;;9.03;;
32292;SDS011;43233;48.608;8.838;2022-11-14T02:15:38;10.47;;;8.70;;
32292;SDS011;43233;48.608;8.838;2022-11-14T02:18:04;10.50;;;8.00;;
32292;SDS011;43233;48.608;8.838;2022-11-14T02:20:33;31.17;;;9.07;;
32292;SDS011;43233;48.608;8.838;2022-11-14T02:23:01;11.90;;;9.03;;
32292;SDS011;43233;48.608;8.838;2022-11-14T02:25:27;9.17;;;7.73;;
32292;SDS011;43233;48.608;8.838;2022-11-14T02:27:53;10.37;;;7.53;;
32292;SDS011;43233;48.608;8.838;2022-11-14T02:30:21;16.10;;;7.87;;
32292;SDS011;43233;48.608;8.838;2022-11-14T02:32:47;7.90;;;6.90;;
32292;SDS011;43233;48.608;8.838;2022-11-14T02:35:13;14.57;;;7.87;;
32292;SDS011;43233;48.608;8.838;2022-11-14T02:37:39;11.83;;;7.43;;
32292;SDS011;43233;48.608;8.838;2022-11-14T02:40:05;10.80;;;8.13;;
32292;SDS011;43233;48.608;8.838;2022-11-14T02:42:31;62.23;;;7.93;;
32292;SDS011;43233;48.608;8.838;2022-11-14T02:44:57;10.07;;;8.17;;
32292;SDS011;43233;48.608;8.838;2022-11-14T02:47:22;14.53;;;9.40;;
32292;SDS011;43233;48.608;8.838;2022-11-14T02:49:51;12.50;;;8.77;;
32292;SDS011;43233;48.608;8.838;2022-11-14T02:52:17;10.87;;;7.20;;
32292;SDS011;43233;48.608;8.838;2022-11-14T02:54:42;42.50;;;9.40;;
32292;SDS011;43233;48.608;8.838;2022-11-14T02:57:08;13.10;;;8.40;;
32292;SDS011;43233;48.608;8.838;2022-11-14T02:59:34;33.07;;;10.57;;
32292;SDS011;43233;48.608;8.838;2022-11-14T03:01:59;24.10;;;8.97;;
32292;SDS011;43233;48.608;8.838;2022-11-14T03:04:25;18.50;;;9.83;;
32292;SDS011;43233;48.608;8.838;2022-11-14T03:06:51;30.83;;;7.90;;
32292;SDS011;43233;48.608;8.838;2022-11-14T03:09:16;14.50;;;10.17;;
32292;SDS011;43233;48.608;8.838;2022-11-14T03:11:43;15.17;;;9.23;;
32292;SDS011;43233;48.608;8.838;2022-11-14T03:14:08;23.70;;;9.50;;
32292;SDS011;43233;48.608;8.838;2022-11-14T03:16:34;12.93;;;9.90;;
32292;SDS011;43233;48.608;8.838;2022-11-14T03:19:00;12.00;;;9.50;;
32292;SDS011;43233;48.608;8.838;2022-11-14T03:21:26;15.40;;;8.40;;
32292;SDS011;43233;48.608;8.838;2022-11-14T03:23:52;13.43;;;9.00;;
32292;SDS011;43233;48.608;8.838;2022-11-14T03:26:17;12.20;;;8.60;;
32292;SDS011;43233;48.608;8.838;2022-11-14T03:28:43;12.10;;;8.90;;
32292;SDS011;43233;48.608;8.838;2022-11-14T03:31:10;11.03;;;8.50;;
32292;SDS011;43233;48.608;8.838;2022-11-14T03:33:36;18.27;;;9.80;;
32292;SDS011;43233;48.608;8.838;2022-11-14T03:36:02;11.73;;;8.30;;
32292;SDS011;43233;48.608;8.838;2022-11-14T03:38:29;10.80;;;8.67;;
32292;SDS011;43233;48.608;8.838;2022-11-14T03:40:56;12.00;;;8.23;;
32292;SDS011;43233;48.608;8.838;2022-11-14T03:43:23;15.20;;;10.40;;
32292;SDS011;43233;48.608;8.838;2022-11-14T03:45:48;15.07;;;10.13;;
32292;SDS011;43233;48.608;8.838;2022-11-14T03:48:15;14.90;;;10.97;;
32292;SDS011;43233;48.608;8.838;2022-11-14T03:50:41;86.40;;;11.57;;
32292;SDS011;43233;48.608;8.838;2022-11-14T03:53:07;21.70;;;10.40;;
32292;SDS011;43233;48.608;8.838;2022-11-14T03:55:33;29.63;;;9.10;;
32292;SDS011;43233;48.608;8.838;2022-11-14T03:57:59;20.47;;;10.67;;
32292;SDS011;43233;48.608;8.838;2022-11-14T04:00:24;17.40;;;10.60;;
32292;SDS011;43233;48.608;8.838;2022-11-14T04:02:53;26.73;;;10.87;;
32292;SDS011;43233;48.608;8.838;2022-11-14T04:05:19;13.17;;;9.17;;
32292;SDS011;43233;48.608;8.838;2022-11-14T04:07:46;24.70;;;10.27;;
32292;SDS011;43233;48.608;8.838;2022-11-14T04:10:11;191.90;;;14.00;;
32292;SDS011;43233;48.608;8.838;2022-11-14T04:12:37;43.43;;;10.63;;
32292;SDS011;43233;48.608;8.838;2022-11-14T04:15:03;63.63;;;11.10;;
32292;SDS011;43233;48.608;8.838;2022-11-14T04:17:29;12.50;;;9.00;;
32292;SDS011;43233;48.608;8.838;2022-11-14T04:19:54;14.67;;;9.17;;
32292;SDS011;43233;48.608;8.838;2022-11-14T04:22:20;16.50;;;10.20;;
32292;SDS011;43233;48.608;8.838;2022-11-14T04:24:46;16.77;;;9.53;;
32292;SDS011;43233;48.608;8.838;2022-11-14T04:27:11;18.83;;;8.90;;
32292;SDS011;43233;48.608;8.838;2022-11-14T04:29:37;13.77;;;9.73;;
32292;SDS011;43233;48.608;8.838;2022-11-14T04:32:02;12.67;;;8.93;;
32292;SDS011;43233;48.608;8.838;2022-11-14T04:34:28;31.53;;;9.30;;
32292;SDS011;43233;48.608;8.838;2022-11-14T04:36:54;20.83;;;10.13;;
32292;SDS011;43233;48.608;8.838;2022-11-14T04:39:19;23.87;;;10.10;;
32292;SDS011;43233;48.608;8.838;2022-11-14T04:41:45;144.70;;;11.17;;
32292;SDS011;43233;48.608;8.838;2022-11-14T04:44:10;33.77;;;7.73;;
32292;SDS011;43233;48.608;8.838;2022-11-14T04:46:36;201.43;;;12.10;;
32292;SDS011;43233;48.608;8.838;2022-11-14T04:49:01;11.87;;;8.73;;
32292;SDS011;43233;48.608;8.838;2022-11-14T04:51:27;158.20;;;12.07;;
32292;SDS011;43233;48.608;8.838;2022-11-14T04:53:53;10.10;;;7.63;;
32292;SDS011;43233;48.608;8.838;2022-11-14T04:56:18;53.00;;;10.93;;
32292;SDS011;43233;48.608;8.838;2022-11-14T04:58:47;22.20;;;10.83;;
32292;SDS011;43233;48.608;8.838;2022-11-14T05:01:13;13.07;;;8.70;;
32292;SDS011;43233;48.608;8.838;2022-11-14T05:03:38;26.97;;;7.93;;
32292;SDS011;43233;48.608;8.838;2022-11-14T05:06:04;15.30;;;8.87;;
32292;SDS011;43233;48.608;8.838;2022-11-14T05:08:30;31.57;;;10.57;;
32292;SDS011;43233;48.608;8.838;2022-11-14T05:10:55;46.03;;;10.30;;
32292;SDS011;43233;48.608;8.838;2022-11-14T05:13:21;11.83;;;8.20;;
32292;SDS011;43233;48.608;8.838;2022-11-14T05:15:47;25.03;;;8.57;;
32292;SDS011;43233;48.608;8.838;2022-11-14T05:18:12;249.40;;;14.90;;
32292;SDS011;43233;48.608;8.838;2022-11-14T05:20:38;43.60;;;9.90;;
32292;SDS011;43233;48.608;8.838;2022-11-14T05:23:03;11.80;;;8.20;;
32292;SDS011;43233;48.608;8.838;2022-11-14T05:25:29;131.60;;;11.13;;
32292;SDS011;43233;48.608;8.838;2022-11-14T05:27:55;13.87;;;7.90;;
32292;SDS011;43233;48.608;8.838;2022-11-14T05:30:20;22.70;;;8.87;;
32292;SDS011;43233;48.608;8.838;2022-11-14T05:32:46;11.60;;;7.90;;
32292;SDS011;43233;48.608;8.838;2022-11-14T05:35:11;10.77;;;9.00;;
32292;SDS011;43233;48.608;8.838;2022-11-14T05:37:37;7.33;;;6.50;;
32292;SDS011;43233;48.608;8.838;2022-11-14T05:40:03;14.30;;;7.40;;
32292;SDS011;43233;48.608;8.838;2022-11-14T05:42:30;6.13;;;5.53;;
32292;SDS011;43233;48.608;8.838;2022-11-14T05:44:56;6.87;;;5.93;;
32292;SDS011;43233;48.608;8.838;2022-11-14T05:47:21;6.13;;;5.53;;
32292;SDS011;43233;48.608;8.838;2022-11-14T05:49:47;6.53;;;5.93;;
32292;SDS011;43233;48.608;8.838;2022-11-14T05:52:12;13.30;;;8.77;;
32292;SDS011;43233;48.608;8.838;2022-11-14T05:54:38;13.13;;;8.47;;
32292;SDS011;43233;48.608;8.838;2022-11-14T05:57:04;19.40;;;9.00;;
32292;SDS011;43233;48.608;8.838;2022-11-14T05:59:29;11.17;;;7.67;;
32292;SDS011;43233;48.608;8.838;2022-11-14T06:01:55;84.80;;;9.27;;
32292;SDS011;43233;48.608;8.838;2022-11-14T06:04:21;15.40;;;7.50;;
32292;SDS011;43233;48.608;8.838;2022-11-14T06:06:47;9.27;;;6.30;;
32292;SDS011;43233;48.608;8.838;2022-11-14T06:09:12;211.53;;;12.10;;
32292;SDS011;43233;48.608;8.838;2022-11-14T06:11:38;35.07;;;8.50;;
32292;SDS011;43233;48.608;8.838;2022-11-14T06:14:04;90.47;;;9.90;;
32292;SDS011;43233;48.608;8.838;2022-11-14T06:16:29;9.07;;;6.30;;
32292;SDS011;43233;48.608;8.838;2022-11-14T06:18:55;11.43;;;7.20;;
32292;SDS011;43233;48.608;8.838;2022-11-14T06:21:21;23.40;;;9.47;;
32292;SDS011;43233;48.608;8.838;2022-11-14T06:23:48;32.07;;;7.80;;
32292;SDS011;43233;48.608;8.838;2022-11-14T06:26:21;22.77;;;7.50;;
32292;SDS011;43233;48.608;8.838;2022-11-14T06:28:49;89.40;;;9.43;;
32292;SDS011;43233;48.608;8.838;2022-11-14T06:31:15;8.53;;;6.63;;
32292;SDS011;43233;48.608;8.838;2022-11-14T06:33:42;10.17;;;7.60;;
32292;SDS011;43233;48.608;8.838;2022-11-14T06:36:08;9.47;;;7.40;;
32292;SDS011;43233;48.608;8.838;2022-11-14T06:38:35;8.97;;;6.80;;
32292;SDS011;43233;48.608;8.838;2022-11-14T06:41:06;14.13;;;8.07;;
32292;SDS011;43233;48.608;8.838;2022-11-14T06:43:37;16.80;;;7.67;;
32292;SDS011;43233;48.608;8.838;2022-11-14T06:46:04;11.07;;;8.03;;
32292;SDS011;43233;48.608;8.838;2022-11-14T06:48:30;103.53;;;9.93;;
32292;SDS011;43233;48.608;8.838;2022-11-14T06:50:57;10.50;;;8.50;;
32292;SDS011;43233;48.608;8.838;2022-11-14T06:53:24;11.43;;;8.40;;
32292;SDS011;43233;48.608;8.838;2022-11-14T06:55:55;8.43;;;7.00;;
32292;SDS011;43233;48.608;8.838;2022-11-14T06:58:21;11.13;;;6.90;;
32292;SDS011;43233;48.608;8.838;2022-11-14T07:00:49;7.00;;;6.17;;
32292;SDS011;43233;48.608;8.838;2022-11-14T07:03:15;10.20;;;7.87;;
32292;SDS011;43233;48.608;8.838;2022-11-14T07:05:40;8.87;;;7.07;;
32292;SDS011;43233;48.608;8.838;2022-11-14T07:08:06;8.63;;;7.37;;
32292;SDS011;43233;48.608;8.838;2022-11-14T07:10:31;12.80;;;9.43;;
32292;SDS011;43233;48.608;8.838;2022-11-14T07:12:57;13.70;;;9.90;;
32292;SDS011;43233;48.608;8.838;2022-11-14T07:15:23;11.13;;;8.20;;
32292;SDS011;43233;48.608;8.838;2022-11-14T07:17:48;15.40;;;10.73;;
32292;SDS011;43233;48.608;8.838;2022-11-14T07:20:14;14.37;;;8.90;;
32292;SDS011;43233;48.608;8.838;2022-11-14T07:22:40;14.60;;;10.07;;
32292;SDS011;43233;48.608;8.838;2022-11-14T07:25:06;14.37;;;10.23;;
32292;SDS011;43233;48.608;8.838;2022-11-14T07:27:32;16.13;;;10.10;;
32292;SDS011;43233;48.608;8.838;2022-11-14T07:29:57;15.10;;;10.10;;
32292;SDS011;43233;48.608;8.838;2022-11-14T07:32:23;14.30;;;9.50;;
32292;SDS011;43233;48.608;8.838;2022-11-14T07:34:48;17.60;;;10.37;;
32292;SDS011;43233;48.608;8.838;2022-11-14T07:37:14;15.33;;;9.30;;
32292;SDS011;43233;48.608;8.838;2022-11-14T07:39:39;14.30;;;9.17;;
32292;SDS011;43233;48.608;8.838;2022-11-14T07:42:05;13.03;;;8.50;;
32292;SDS011;43233;48.608;8.838;2022-11-14T07:44:30;14.47;;;8.80;;
32292;SDS011;43233;48.608;8.838;2022-11-14T07:46:56;15.00;;;9.23;;
32292;SDS011;43233;48.608;8.838;2022-11-14T07:49:22;10.00;;;8.17;;
32292;SDS011;43233;48.608;8.838;2022-11-14T07:51:47;14.47;;;10.03;;
32292;SDS011;43233;48.608;8.838;2022-11-14T07:54:13;11.00;;;8.60;;
32292;SDS011;43233;48.608;8.838;2022-11-14T07:56:38;16.00;;;10.60;;
32292;SDS011;43233;48.608;8.838;2022-11-14T07:59:04;15.17;;;10.40;;
32292;SDS011;43233;48.608;8.838;2022-11-14T08:01:30;15.90;;;10.17;;
32292;SDS011;43233;48.608;8.838;2022-11-14T08:03:55;13.40;;;9.80;;
32292;SDS011;43233;48.608;8.838;2022-11-14T08:06:21;13.07;;;8.80;;
32292;SDS011;43233;48.608;8.838;2022-11-14T08:08:46;10.37;;;8.60;;
32292;SDS011;43233;48.608;8.838;2022-11-14T08:11:12;12.50;;;8.50;;
32292;SDS011;43233;48.608;8.838;2022-11-14T08:13:37;11.63;;;8.37;;
32292;SDS011;43233;48.608;8.838;2022-11-14T08:16:07;14.60;;;9.90;;
32292;SDS011;43233;48.608;8.838;2022-11-14T08:18:34;13.20;;;9.93;;
32292;SDS011;43233;48.608;8.838;2022-11-14T08:21:02;11.93;;;8.80;;
32292;SDS011;43233;48.608;8.838;2022-11-14T08:23:28;13.30;;;8.80;;
32292;SDS011;43233;48.608;8.838;2022-11-14T08:25:53;32.90;;;10.10;;
32292;SDS011;43233;48.608;8.838;2022-11-14T08:28:19;12.17;;;8.00;;
32292;SDS011;43233;48.608;8.838;2022-11-14T08:30:46;11.60;;;9.07;;
32292;SDS011;43233;48.608;8.838;2022-11-14T08:33:11;10.50;;;8.20;;
32292;SDS011;43233;48.608;8.838;2022-11-14T08:35:37;10.23;;;7.77;;
32292;SDS011;43233;48.608;8.838;2022-11-14T08:38:03;17.53;;;11.10;;
32292;SDS011;43233;48.608;8.838;2022-11-14T08:40:28;15.80;;;10.90;;
32292;SDS011;43233;48.608;8.838;2022-11-14T08:42:58;18.00;;;11.10;;
32292;SDS011;43233;48.608;8.838;2022-11-14T08:45:27;18.03;;;10.80;;
32292;SDS011;43233;48.608;8.838;2022-11-14T08:47:53;14.27;;;9.90;;
32292;SDS011;43233;48.608;8.838;2022-11-14T08:50:19;13.33;;;9.60;;
32292;SDS011;43233;48.608;8.838;2022-11-14T08:52:48;13.13;;;9.17;;
32292;SDS011;43233;48.608;8.838;2022-11-14T08:55:16;12.03;;;9.87;;
32292;SDS011;43233;48.608;8.838;2022-11-14T08:57:41;10.30;;;8.10;;
32292;SDS011;43233;48.608;8.838;2022-11-14T09:00:07;13.77;;;9.00;;
32292;SDS011;43233;48.608;8.838;2022-11-14T09:02:33;11.83;;;8.67;;
32292;SDS011;43233;48.608;8.838;2022-11-14T09:04:59;13.17;;;9.03;;
32292;SDS011;43233;48.608;8.838;2022-11-14T09:07:24;11.97;;;9.17;;
32292;SDS011;43233;48.608;8.838;2022-11-14T09:09:50;8.77;;;7.80;;
32292;SDS011;43233;48.608;8.838;2022-11-14T09:12:16;13.20;;;8.40;;
32292;SDS011;43233;48.608;8.838;2022-11-14T09:14:42;11.17;;;8.33;;
32292;SDS011;43233;48.608;8.838;2022-11-14T09:17:07;11.10;;;8.13;;
32292;SDS011;43233;48.608;8.838;2022-11-14T09:19:33;10.50;;;7.67;;
32292;SDS011;43233;48.608;8.838;2022-11-14T09:21:58;9.80;;;8.00;;
32292;SDS011;43233;48.608;8.838;2022-11-14T09:24:24;13.30;;;8.47;;
32292;SDS011;43233;48.608;8.838;2022-11-14T09:26:50;23.43;;;9.07;;
32292;SDS011;43233;48.608;8.838;2022-11-14T09:29:16;13.37;;;8.47;;
32292;SDS011;43233;48.608;8.838;2022-11-14T09:31:42;11.90;;;8.07;;
32292;SDS011;43233;48.608;8.838;2022-11-14T09:34:08;13.43;;;7.70;;
32292;SDS011;43233;48.608;8.838;2022-11-14T09:36:34;14.10;;;7.60;;
32292;SDS011;43233;48.608;8.838;2022-11-14T09:39:00;19.30;;;7.63;;
32292;SDS011;43233;48.608;8.838;2022-11-14T09:41:28;16.97;;;8.60;;
32292;SDS011;43233;48.608;8.838;2022-11-14T09:47:14;10.50;;;6.83;;
32292;SDS011;43233;48.608;8.838;2022-11-14T09:49:45;8.00;;;5.83;;
32292;SDS011;43233;48.608;8.838;2022-11-14T09:55:16;13.87;;;6.03;;
32292;SDS011;43233;48.608;8.838;2022-11-14T09:57:44;17.83;;;7.17;;
32292;SDS011;43233;48.608;8.838;2022-11-14T10:00:20;11.43;;;6.20;;
32292;SDS011;43233;48.608;8.838;2022-11-14T10:08:33;12.03;;;7.90;;
32292;SDS011;43233;48.608;8.838;2022-11-14T10:11:21;12.63;;;7.23;;
32292;SDS011;43233;48.608;8.838;2022-11-14T10:17:11;15.13;;;7.47;;
32292;SDS011;43233;48.608;8.838;2022-11-14T10:20:02;10.30;;;7.77;;
32292;SDS011;43233;48.608;8.838;2022-11-14T10:35:09;8.60;;;6.10;;
32292;SDS011;43233;48.608;8.838;2022-11-14T10:37:17;6.83;;;6.13;;
32292;SDS011;43233;48.608;8.838;2022-11-14T10:39:50;10.17;;;6.20;;
32292;SDS011;43233;48.608;8.838;2022-11-14T10:45:14;6.23;;;5.20;;
32292;SDS011;43233;48.608;8.838;2022-11-14T10:47:47;6.10;;;4.77;;
32292;SDS011;43233;48.608;8.838;2022-11-14T10:50:20;5.20;;;4.70;;
32292;SDS011;43233;48.608;8.838;2022-11-14T10:52:51;6.47;;;5.00;;
32292;SDS011;43233;48.608;8.838;2022-11-14T10:55:21;12.33;;;5.50;;
32292;SDS011;43233;48.608;8.838;2022-11-14T10:57:49;5.60;;;4.80;;
32292;SDS011;43233;48.608;8.838;2022-11-14T11:00:15;8.20;;;4.63;;
32292;SDS011;43233;48.608;8.838;2022-11-14T11:02:50;6.30;;;4.97;;
32292;SDS011;43233;48.608;8.838;2022-11-14T11:05:18;6.83;;;5.30;;
32292;SDS011;43233;48.608;8.838;2022-11-14T11:07:46;10.33;;;4.77;;
32292;SDS011;43233;48.608;8.838;2022-11-14T11:10:32;9.50;;;4.90;;
32292;SDS011;43233;48.608;8.838;2022-11-14T11:15:59;7.53;;;4.37;;
32292;SDS011;43233;48.608;8.838;2022-11-14T11:18:28;5.87;;;4.97;;
32292;SDS011;43233;48.608;8.838;2022-11-14T11:21:00;7.83;;;5.30;;
32292;SDS011;43233;48.608;8.838;2022-11-14T11:23:27;5.23;;;4.60;;
32292;SDS011;43233;48.608;8.838;2022-11-14T11:26:00;2.47;;;2.27;;
32292;SDS011;43233;48.608;8.838;2022-11-14T11:28:35;2.40;;;2.20;;
32292;SDS011;43233;48.608;8.838;2022-11-14T11:31:02;2.70;;;2.50;;
32292;SDS011;43233;48.608;8.838;2022-11-14T11:33:33;1.90;;;1.80;;
32292;SDS011;43233;48.608;8.838;2022-11-14T11:36:04;2.17;;;2.07;;
32292;SDS011;43233;48.608;8.838;2022-11-14T11:38:36;1.93;;;1.83;;
32292;SDS011;43233;48.608;8.838;2022-11-14T11:43:55;2.30;;;2.10;;
32292;SDS011;43233;48.608;8.838;2022-11-14T11:49:04;1.83;;;1.73;;
32292;SDS011;43233;48.608;8.838;2022-11-14T11:51:37;2.30;;;2.10;;
32292;SDS011;43233;48.608;8.838;2022-11-14T11:54:21;2.00;;;1.90;;
32292;SDS011;43233;48.608;8.838;2022-11-14T11:56:55;2.03;;;1.93;;
32292;SDS011;43233;48.608;8.838;2022-11-14T11:59:27;2.73;;;2.17;;
32292;SDS011;43233;48.608;8.838;2022-11-14T12:02:01;2.60;;;2.30;;
32292;SDS011;43233;48.608;8.838;2022-11-14T12:04:41;2.00;;;1.80;;
32292;SDS011;43233;48.608;8.838;2022-11-14T12:07:11;2.30;;;2.10;;
32292;SDS011;43233;48.608;8.838;2022-11-14T12:09:40;3.53;;;1.90;;
32292;SDS011;43233;48.608;8.838;2022-11-14T12:12:15;1.77;;;1.67;;
32292;SDS011;43233;48.608;8.838;2022-11-14T12:15:05;1.97;;;1.87;;
32292;SDS011;43233;48.608;8.838;2022-11-14T12:23:27;3.13;;;1.97;;
32292;SDS011;43233;48.608;8.838;2022-11-14T12:26:00;4.40;;;1.70;;
32292;SDS011;43233;48.608;8.838;2022-11-14T12:31:22;2.20;;;2.00;;
32292;SDS011;43233;48.608;8.838;2022-11-14T12:33:58;2.90;;;1.70;;
32292;SDS011;43233;48.608;8.838;2022-11-14T12:36:28;1.80;;;1.70;;
32292;SDS011;43233;48.608;8.838;2022-11-14T12:38:57;1.60;;;1.50;;
32292;SDS011;43233;48.608;8.838;2022-11-14T12:44:15;3.80;;;1.90;;
32292;SDS011;43233;48.608;8.838;2022-11-14T12:52:03;4.27;;;3.03;;
32292;SDS011;43233;48.608;8.838;2022-11-14T12:54:49;3.40;;;2.93;;
32292;SDS011;43233;48.608;8.838;2022-11-14T12:57:17;4.80;;;3.23;;
32292;SDS011;43233;48.608;8.838;2022-11-14T13:00:09;4.67;;;4.27;;
32292;SDS011;43233;48.608;8.838;2022-11-14T13:05:31;2.77;;;2.53;;
32292;SDS011;43233;48.608;8.838;2022-11-14T13:08:21;2.70;;;2.50;;
32292;SDS011;43233;48.608;8.838;2022-11-14T13:14:14;3.17;;;2.87;;
32292;SDS011;43233;48.608;8.838;2022-11-14T13:17:08;3.77;;;2.80;;
32292;SDS011;43233;48.608;8.838;2022-11-14T13:20:05;2.40;;;2.20;;
32292;SDS011;43233;48.608;8.838;2022-11-14T13:28:50;2.30;;;2.10;;
32292;SDS011;43233;48.608;8.838;2022-11-14T13:31:21;4.17;;;2.33;;
32292;SDS011;43233;48.608;8.838;2022-11-14T13:33:52;2.20;;;2.00;;
32292;SDS011;43233;48.608;8.838;2022-11-14T13:39:21;2.07;;;1.97;;
32292;SDS011;43233;48.608;8.838;2022-11-14T13:44:53;3.17;;;2.03;;
32292;SDS011;43233;48.608;8.838;2022-11-14T13:50:07;4.63;;;2.40;;
32292;SDS011;43233;48.608;8.838;2022-11-14T13:52:40;1.80;;;1.70;;
32292;SDS011;43233;48.608;8.838;2022-11-14T13:55:16;7.53;;;2.40;;
32292;SDS011;43233;48.608;8.838;2022-11-14T13:58:30;2.93;;;2.73;;
32292;SDS011;43233;48.608;8.838;2022-11-14T14:15:04;3.10;;;2.90;;
32292;SDS011;43233;48.608;8.838;2022-11-14T14:23:58;4.53;;;2.90;;
32292;SDS011;43233;48.608;8.838;2022-11-14T14:31:20;4.93;;;3.00;;
32292;SDS011;43233;48.608;8.838;2022-11-14T14:33:49;2.63;;;2.40;;
32292;SDS011;43233;48.608;8.838;2022-11-14T14:36:21;2.63;;;2.43;;
32292;SDS011;43233;48.608;8.838;2022-11-14T14:41:42;3.60;;;3.30;;
32292;SDS011;43233;48.608;8.838;2022-11-14T14:44:16;15.23;;;4.50;;
32292;SDS011;43233;48.608;8.838;2022-11-14T14:46:45;5.43;;;2.90;;
32292;SDS011;43233;48.608;8.838;2022-11-14T14:49:15;4.83;;;3.33;;
32292;SDS011;43233;48.608;8.838;2022-11-14T14:51:44;3.20;;;2.90;;
32292;SDS011;43233;48.608;8.838;2022-11-14T14:54:18;6.03;;;3.50;;
32292;SDS011;43233;48.608;8.838;2022-11-14T14:56:52;3.93;;;3.50;;
32292;SDS011;43233;48.608;8.838;2022-11-14T14:59:21;6.47;;;4.00;;
32292;SDS011;43233;48.608;8.838;2022-11-14T15:01:48;7.60;;;3.33;;
32292;SDS011;43233;48.608;8.838;2022-11-14T15:04:14;6.50;;;3.57;;
32292;SDS011;43233;48.608;8.838;2022-11-14T15:06:43;4.50;;;3.50;;
32292;SDS011;43233;48.608;8.838;2022-11-14T15:09:18;4.70;;;3.60;;
32292;SDS011;43233;48.608;8.838;2022-11-14T15:11:52;4.77;;;3.50;;
32292;SDS011;43233;48.608;8.838;2022-11-14T15:14:21;6.80;;;3.50;;
32292;SDS011;43233;48.608;8.838;2022-11-14T15:16:52;4.57;;;3.40;;
32292;SDS011;43233;48.608;8.838;2022-11-14T15:19:23;4.63;;;3.30;;
32292;SDS011;43233;48.608;8.838;2022-11-14T15:22:01;4.97;;;4.17;;
32292;SDS011;43233;48.608;8.838;2022-11-14T15:24:39;5.27;;;3.57;;
32292;SDS011;43233;48.608;8.838;2022-11-14T15:29:46;5.07;;;3.77;;
32292;SDS011;43233;48.608;8.838;2022-11-14T15:32:22;4.63;;;3.83;;
32292;SDS011;43233;48.608;8.838;2022-11-14T15:38:04;5.93;;;3.43;;
32292;SDS011;43233;48.608;8.838;2022-11-14T15:40:37;5.03;;;4.47;;
32292;SDS011;43233;48.608;8.838;2022-11-14T15:46:02;5.50;;;3.73;;
32292;SDS011;43233;48.608;8.838;2022-11-14T15:48:28;4.30;;;3.90;;
32292;SDS011;43233;48.608;8.838;2022-11-14T15:50:55;7.53;;;4.17;;
32292;SDS011;43233;48.608;8.838;2022-11-14T15:53:24;4.63;;;4.20;;
32292;SDS011;43233;48.608;8.838;2022-11-14T15:55:52;9.10;;;5.47;;
32292;SDS011;43233;48.608;8.838;2022-11-14T15:58:17;15.57;;;9.67;;
32292;SDS011;43233;48.608;8.838;2022-11-14T16:00:44;5.70;;;4.40;;
32292;SDS011;43233;48.608;8.838;2022-11-14T16:03:14;11.07;;;6.30;;
32292;SDS011;43233;48.608;8.838;2022-11-14T16:05:45;21.73;;;11.00;;
32292;SDS011;43233;48.608;8.838;2022-11-14T16:08:11;11.43;;;7.20;;
32292;SDS011;43233;48.608;8.838;2022-11-14T16:10:37;8.20;;;6.53;;
32292;SDS011;43233;48.608;8.838;2022-11-14T16:13:03;9.60;;;5.27;;
32292;SDS011;43233;48.608;8.838;2022-11-14T16:15:29;9.73;;;5.20;;
32292;SDS011;43233;48.608;8.838;2022-11-14T16:17:54;5.30;;;4.67;;
32292;SDS011;43233;48.608;8.838;2022-11-14T16:20:21;5.30;;;4.07;;
32292;SDS011;43233;48.608;8.838;2022-11-14T16:22:49;7.50;;;4.83;;
32292;SDS011;43233;48.608;8.838;2022-11-14T16:25:26;7.20;;;4.40;;
32292;SDS011;43233;48.608;8.838;2022-11-14T16:27:53;4.57;;;4.17;;
32292;SDS011;43233;48.608;8.838;2022-11-14T16:30:20;7.37;;;4.77;;
32292;SDS011;43233;48.608;8.838;2022-11-14T16:32:48;6.37;;;5.07;;
32292;SDS011;43233;48.608;8.838;2022-11-14T16:35:18;5.07;;;4.57;;
32292;SDS011;43233;48.608;8.838;2022-11-14T16:37:48;12.10;;;5.20;;
32292;SDS011;43233;48.608;8.838;2022-11-14T16:40:19;7.03;;;4.77;;
32292;SDS011;43233;48.608;8.838;2022-11-14T16:42:54;6.03;;;5.00;;